Terminal Aerodrome Forecast
Issued by NWS

Home | Current Version | Previous Version | Text Only | Print | Product List | Glossary On
Versions: 1 2 3 4 5 6 7 8 9 10 11 12 13 14 15 16 17 18
000
FTUS44 KLIX 250530
TAFMSY
TAF
KMSY 250530Z 2506/2612 17008KT P6SM SCT030 BKN060
     FM251000 18007KT P6SM VCSH BKN012
     FM251200 19006KT P6SM BKN015
      TEMPO 2512/2516 4SM -SHRA
     FM251700 16007KT P6SM SCT025 BKN100
     FM260200 12005KT 4SM -SHRA BKN015=

USA.gov is the U.S. government's official web portal to all federal, state and local government web resources and services.